sensor_id;sensor_type;location;lat;lon;timestamp;P1;durP1;ratioP1;P2;durP2;ratioP2
21601;SDS011;10963;50.934;4.668;2023-02-28T00:01:24;12.97;;;7.93;;
21601;SDS011;10963;50.934;4.668;2023-02-28T00:03:50;12.53;;;7.87;;
21601;SDS011;10963;50.934;4.668;2023-02-28T00:06:18;15.87;;;8.27;;
21601;SDS011;10963;50.934;4.668;2023-02-28T00:08:45;14.67;;;7.77;;
21601;SDS011;10963;50.934;4.668;2023-02-28T00:11:16;11.57;;;7.90;;
21601;SDS011;10963;50.934;4.668;2023-02-28T00:13:43;12.07;;;8.20;;
21601;SDS011;10963;50.934;4.668;2023-02-28T00:16:18;10.63;;;7.70;;
21601;SDS011;10963;50.934;4.668;2023-02-28T00:18:45;13.63;;;8.37;;
21601;SDS011;10963;50.934;4.668;2023-02-28T00:21:12;14.47;;;7.50;;
21601;SDS011;10963;50.934;4.668;2023-02-28T00:23:38;12.10;;;7.77;;
21601;SDS011;10963;50.934;4.668;2023-02-28T00:26:06;17.97;;;8.27;;
21601;SDS011;10963;50.934;4.668;2023-02-28T00:28:36;19.13;;;8.50;;
21601;SDS011;10963;50.934;4.668;2023-02-28T00:31:02;15.87;;;8.57;;
21601;SDS011;10963;50.934;4.668;2023-02-28T00:33:28;13.33;;;7.50;;
21601;SDS011;10963;50.934;4.668;2023-02-28T00:36:06;14.17;;;8.13;;
21601;SDS011;10963;50.934;4.668;2023-02-28T00:38:33;13.83;;;7.87;;
21601;SDS011;10963;50.934;4.668;2023-02-28T00:41:01;13.50;;;8.77;;
21601;SDS011;10963;50.934;4.668;2023-02-28T00:43:30;15.40;;;9.40;;
21601;SDS011;10963;50.934;4.668;2023-02-28T00:45:58;17.23;;;9.23;;
21601;SDS011;10963;50.934;4.668;2023-02-28T00:48:24;14.27;;;7.90;;
21601;SDS011;10963;50.934;4.668;2023-02-28T00:50:50;13.43;;;8.37;;
21601;SDS011;10963;50.934;4.668;2023-02-28T00:53:18;10.23;;;7.80;;
21601;SDS011;10963;50.934;4.668;2023-02-28T00:55:47;12.37;;;8.23;;
21601;SDS011;10963;50.934;4.668;2023-02-28T00:58:13;11.93;;;8.00;;
21601;SDS011;10963;50.934;4.668;2023-02-28T01:00:41;13.90;;;9.00;;
21601;SDS011;10963;50.934;4.668;2023-02-28T01:03:07;16.03;;;8.63;;
21601;SDS011;10963;50.934;4.668;2023-02-28T01:05:38;16.13;;;9.97;;
21601;SDS011;10963;50.934;4.668;2023-02-28T01:08:03;12.87;;;8.17;;
21601;SDS011;10963;50.934;4.668;2023-02-28T01:10:32;14.00;;;8.53;;
21601;SDS011;10963;50.934;4.668;2023-02-28T01:12:57;15.33;;;8.90;;
21601;SDS011;10963;50.934;4.668;2023-02-28T01:15:23;10.73;;;7.30;;
21601;SDS011;10963;50.934;4.668;2023-02-28T01:17:49;12.63;;;8.30;;
21601;SDS011;10963;50.934;4.668;2023-02-28T01:20:15;12.27;;;8.10;;
21601;SDS011;10963;50.934;4.668;2023-02-28T01:22:43;12.07;;;7.87;;
21601;SDS011;10963;50.934;4.668;2023-02-28T01:25:08;12.17;;;8.13;;
21601;SDS011;10963;50.934;4.668;2023-02-28T01:27:34;10.90;;;8.00;;
21601;SDS011;10963;50.934;4.668;2023-02-28T01:30:01;15.23;;;8.90;;
21601;SDS011;10963;50.934;4.668;2023-02-28T01:32:27;14.97;;;8.93;;
21601;SDS011;10963;50.934;4.668;2023-02-28T01:34:56;17.93;;;9.37;;
21601;SDS011;10963;50.934;4.668;2023-02-28T01:37:26;14.40;;;9.13;;
21601;SDS011;10963;50.934;4.668;2023-02-28T01:39:54;14.60;;;8.77;;
21601;SDS011;10963;50.934;4.668;2023-02-28T01:42:22;15.03;;;9.70;;
21601;SDS011;10963;50.934;4.668;2023-02-28T01:48:00;15.90;;;9.80;;
21601;SDS011;10963;50.934;4.668;2023-02-28T01:50:31;12.17;;;9.07;;
21601;SDS011;10963;50.934;4.668;2023-02-28T01:53:02;14.63;;;9.93;;
21601;SDS011;10963;50.934;4.668;2023-02-28T01:55:31;14.77;;;8.87;;
21601;SDS011;10963;50.934;4.668;2023-02-28T01:58:01;16.00;;;10.20;;
21601;SDS011;10963;50.934;4.668;2023-02-28T02:00:29;17.17;;;9.57;;
21601;SDS011;10963;50.934;4.668;2023-02-28T02:03:04;18.03;;;9.83;;
21601;SDS011;10963;50.934;4.668;2023-02-28T02:05:33;18.00;;;9.77;;
21601;SDS011;10963;50.934;4.668;2023-02-28T02:08:12;18.90;;;9.77;;
21601;SDS011;10963;50.934;4.668;2023-02-28T02:10:49;15.53;;;9.40;;
21601;SDS011;10963;50.934;4.668;2023-02-28T02:13:23;15.23;;;9.80;;
21601;SDS011;10963;50.934;4.668;2023-02-28T02:18:44;19.30;;;9.77;;
21601;SDS011;10963;50.934;4.668;2023-02-28T02:27:23;17.10;;;9.53;;
21601;SDS011;10963;50.934;4.668;2023-02-28T02:32:56;14.00;;;8.73;;
21601;SDS011;10963;50.934;4.668;2023-02-28T02:35:42;14.80;;;9.20;;
21601;SDS011;10963;50.934;4.668;2023-02-28T02:41:05;13.07;;;9.57;;
21601;SDS011;10963;50.934;4.668;2023-02-28T02:44:25;21.17;;;9.73;;
21601;SDS011;10963;50.934;4.668;2023-02-28T02:47:10;17.47;;;9.40;;
21601;SDS011;10963;50.934;4.668;2023-02-28T02:49:39;15.30;;;9.23;;
21601;SDS011;10963;50.934;4.668;2023-02-28T02:52:08;15.67;;;9.43;;
21601;SDS011;10963;50.934;4.668;2023-02-28T02:54:39;17.07;;;10.33;;
21601;SDS011;10963;50.934;4.668;2023-02-28T02:57:09;17.47;;;10.30;;
21601;SDS011;10963;50.934;4.668;2023-02-28T02:59:39;17.83;;;10.00;;
21601;SDS011;10963;50.934;4.668;2023-02-28T03:02:06;20.10;;;10.20;;
21601;SDS011;10963;50.934;4.668;2023-02-28T03:04:40;15.90;;;9.80;;
21601;SDS011;10963;50.934;4.668;2023-02-28T03:07:11;14.43;;;9.50;;
21601;SDS011;10963;50.934;4.668;2023-02-28T03:09:37;19.20;;;9.80;;
21601;SDS011;10963;50.934;4.668;2023-02-28T03:12:03;16.20;;;8.93;;
21601;SDS011;10963;50.934;4.668;2023-02-28T03:31:48;14.27;;;9.63;;
21601;SDS011;10963;50.934;4.668;2023-02-28T03:36:57;18.37;;;10.77;;
21601;SDS011;10963;50.934;4.668;2023-02-28T03:39:35;15.83;;;10.40;;
21601;SDS011;10963;50.934;4.668;2023-02-28T03:42:11;17.20;;;10.93;;
21601;SDS011;10963;50.934;4.668;2023-02-28T03:44:43;24.87;;;11.33;;
21601;SDS011;10963;50.934;4.668;2023-02-28T03:47:16;21.87;;;11.50;;
21601;SDS011;10963;50.934;4.668;2023-02-28T03:52:25;17.40;;;10.90;;
21601;SDS011;10963;50.934;4.668;2023-02-28T03:54:54;20.07;;;10.73;;
21601;SDS011;10963;50.934;4.668;2023-02-28T03:57:33;16.70;;;10.57;;
21601;SDS011;10963;50.934;4.668;2023-02-28T04:00:06;18.27;;;10.57;;
21601;SDS011;10963;50.934;4.668;2023-02-28T04:02:38;17.87;;;10.17;;
21601;SDS011;10963;50.934;4.668;2023-02-28T04:05:05;19.87;;;11.83;;
21601;SDS011;10963;50.934;4.668;2023-02-28T04:07:34;21.77;;;11.23;;
21601;SDS011;10963;50.934;4.668;2023-02-28T04:10:03;20.20;;;11.53;;
21601;SDS011;10963;50.934;4.668;2023-02-28T04:12:29;22.43;;;11.47;;
21601;SDS011;10963;50.934;4.668;2023-02-28T04:14:55;21.77;;;12.30;;
21601;SDS011;10963;50.934;4.668;2023-02-28T04:17:21;21.37;;;12.30;;
21601;SDS011;10963;50.934;4.668;2023-02-28T04:19:49;19.80;;;12.40;;
21601;SDS011;10963;50.934;4.668;2023-02-28T04:22:14;21.00;;;11.00;;
21601;SDS011;10963;50.934;4.668;2023-02-28T04:24:42;20.53;;;12.30;;
21601;SDS011;10963;50.934;4.668;2023-02-28T04:27:10;17.80;;;11.60;;
21601;SDS011;10963;50.934;4.668;2023-02-28T04:29:36;19.60;;;12.30;;
21601;SDS011;10963;50.934;4.668;2023-02-28T04:32:04;20.77;;;12.37;;
21601;SDS011;10963;50.934;4.668;2023-02-28T04:34:30;21.83;;;12.13;;
21601;SDS011;10963;50.934;4.668;2023-02-28T04:36:57;17.83;;;12.43;;
21601;SDS011;10963;50.934;4.668;2023-02-28T04:39:26;19.53;;;12.20;;
21601;SDS011;10963;50.934;4.668;2023-02-28T04:41:51;22.73;;;12.97;;
21601;SDS011;10963;50.934;4.668;2023-02-28T04:44:17;22.93;;;13.00;;
21601;SDS011;10963;50.934;4.668;2023-02-28T04:46:43;25.43;;;13.70;;
21601;SDS011;10963;50.934;4.668;2023-02-28T04:49:12;21.17;;;12.37;;
21601;SDS011;10963;50.934;4.668;2023-02-28T04:51:40;26.37;;;13.63;;
21601;SDS011;10963;50.934;4.668;2023-02-28T04:54:07;20.27;;;12.60;;
21601;SDS011;10963;50.934;4.668;2023-02-28T04:56:33;26.20;;;14.20;;
21601;SDS011;10963;50.934;4.668;2023-02-28T04:58:59;23.80;;;13.93;;
21601;SDS011;10963;50.934;4.668;2023-02-28T05:01:32;26.87;;;14.37;;
21601;SDS011;10963;50.934;4.668;2023-02-28T05:03:59;25.53;;;14.30;;
21601;SDS011;10963;50.934;4.668;2023-02-28T05:06:27;30.10;;;13.20;;
21601;SDS011;10963;50.934;4.668;2023-02-28T05:08:54;25.17;;;14.47;;
21601;SDS011;10963;50.934;4.668;2023-02-28T05:11:28;28.23;;;15.27;;
21601;SDS011;10963;50.934;4.668;2023-02-28T05:13:59;23.27;;;13.27;;
21601;SDS011;10963;50.934;4.668;2023-02-28T05:16:29;27.30;;;14.23;;
21601;SDS011;10963;50.934;4.668;2023-02-28T05:18:56;28.20;;;14.03;;
21601;SDS011;10963;50.934;4.668;2023-02-28T05:23:50;31.03;;;14.87;;
21601;SDS011;10963;50.934;4.668;2023-02-28T05:26:18;26.90;;;14.23;;
21601;SDS011;10963;50.934;4.668;2023-02-28T05:28:44;25.03;;;13.50;;
21601;SDS011;10963;50.934;4.668;2023-02-28T05:31:11;30.13;;;15.85;;
21601;SDS011;10963;50.934;4.668;2023-02-28T05:33:37;29.93;;;14.20;;
21601;SDS011;10963;50.934;4.668;2023-02-28T05:36:10;26.93;;;14.63;;
21601;SDS011;10963;50.934;4.668;2023-02-28T05:38:35;21.63;;;12.83;;
21601;SDS011;10963;50.934;4.668;2023-02-28T05:41:09;34.57;;;14.10;;
21601;SDS011;10963;50.934;4.668;2023-02-28T05:43:40;24.77;;;12.93;;
21601;SDS011;10963;50.934;4.668;2023-02-28T05:46:10;21.53;;;13.43;;
21601;SDS011;10963;50.934;4.668;2023-02-28T05:48:37;25.50;;;14.67;;
21601;SDS011;10963;50.934;4.668;2023-02-28T05:51:06;24.97;;;14.70;;
21601;SDS011;10963;50.934;4.668;2023-02-28T05:53:33;22.50;;;13.50;;
21601;SDS011;10963;50.934;4.668;2023-02-28T05:55:59;25.20;;;13.10;;
21601;SDS011;10963;50.934;4.668;2023-02-28T05:58:28;25.07;;;13.67;;
21601;SDS011;10963;50.934;4.668;2023-02-28T06:00:59;26.70;;;13.87;;
21601;SDS011;10963;50.934;4.668;2023-02-28T06:03:28;21.63;;;14.23;;
21601;SDS011;10963;50.934;4.668;2023-02-28T06:05:55;21.77;;;12.97;;
21601;SDS011;10963;50.934;4.668;2023-02-28T06:08:23;25.17;;;13.67;;
21601;SDS011;10963;50.934;4.668;2023-02-28T06:10:51;26.70;;;13.87;;
21601;SDS011;10963;50.934;4.668;2023-02-28T06:13:18;22.13;;;13.70;;
21601;SDS011;10963;50.934;4.668;2023-02-28T06:15:46;25.27;;;13.27;;
21601;SDS011;10963;50.934;4.668;2023-02-28T06:18:11;24.50;;;14.23;;
21601;SDS011;10963;50.934;4.668;2023-02-28T06:20:39;22.70;;;13.17;;
21601;SDS011;10963;50.934;4.668;2023-02-28T06:23:05;20.87;;;12.97;;
21601;SDS011;10963;50.934;4.668;2023-02-28T06:25:31;25.63;;;13.53;;
21601;SDS011;10963;50.934;4.668;2023-02-28T06:27:59;26.17;;;12.93;;
21601;SDS011;10963;50.934;4.668;2023-02-28T06:30:25;21.03;;;13.40;;
21601;SDS011;10963;50.934;4.668;2023-02-28T06:32:52;25.80;;;12.83;;
21601;SDS011;10963;50.934;4.668;2023-02-28T06:35:18;24.13;;;13.17;;
21601;SDS011;10963;50.934;4.668;2023-02-28T06:37:44;27.00;;;13.23;;
21601;SDS011;10963;50.934;4.668;2023-02-28T06:40:10;24.50;;;13.63;;
21601;SDS011;10963;50.934;4.668;2023-02-28T06:42:41;27.43;;;13.77;;
21601;SDS011;10963;50.934;4.668;2023-02-28T06:45:12;20.60;;;12.63;;
21601;SDS011;10963;50.934;4.668;2023-02-28T06:47:41;22.00;;;12.83;;
21601;SDS011;10963;50.934;4.668;2023-02-28T06:50:08;22.50;;;13.43;;
21601;SDS011;10963;50.934;4.668;2023-02-28T06:52:35;22.40;;;12.80;;
21601;SDS011;10963;50.934;4.668;2023-02-28T06:55:03;21.57;;;12.17;;
21601;SDS011;10963;50.934;4.668;2023-02-28T06:57:33;20.70;;;12.27;;
21601;SDS011;10963;50.934;4.668;2023-02-28T07:00:03;19.93;;;12.83;;
21601;SDS011;10963;50.934;4.668;2023-02-28T07:02:34;19.10;;;12.00;;
21601;SDS011;10963;50.934;4.668;2023-02-28T07:05:01;26.20;;;12.97;;
21601;SDS011;10963;50.934;4.668;2023-02-28T07:07:26;20.40;;;12.77;;
21601;SDS011;10963;50.934;4.668;2023-02-28T07:09:52;19.57;;;12.33;;
21601;SDS011;10963;50.934;4.668;2023-02-28T07:12:18;21.10;;;11.70;;
21601;SDS011;10963;50.934;4.668;2023-02-28T07:14:46;23.80;;;12.90;;
21601;SDS011;10963;50.934;4.668;2023-02-28T07:17:12;23.80;;;13.23;;
21601;SDS011;10963;50.934;4.668;2023-02-28T07:19:39;22.00;;;13.47;;
21601;SDS011;10963;50.934;4.668;2023-02-28T07:22:07;24.73;;;13.93;;
21601;SDS011;10963;50.934;4.668;2023-02-28T07:24:35;21.10;;;12.90;;
21601;SDS011;10963;50.934;4.668;2023-02-28T07:27:03;23.80;;;13.13;;
21601;SDS011;10963;50.934;4.668;2023-02-28T07:29:29;23.47;;;13.07;;
21601;SDS011;10963;50.934;4.668;2023-02-28T07:31:55;19.37;;;12.50;;
21601;SDS011;10963;50.934;4.668;2023-02-28T07:34:23;16.83;;;12.33;;
21601;SDS011;10963;50.934;4.668;2023-02-28T07:36:52;24.17;;;11.87;;
21601;SDS011;10963;50.934;4.668;2023-02-28T07:39:19;20.83;;;11.73;;
21601;SDS011;10963;50.934;4.668;2023-02-28T07:41:49;22.57;;;12.27;;
21601;SDS011;10963;50.934;4.668;2023-02-28T07:44:15;25.63;;;12.10;;
21601;SDS011;10963;50.934;4.668;2023-02-28T07:46:41;27.67;;;11.93;;
21601;SDS011;10963;50.934;4.668;2023-02-28T07:49:07;20.13;;;12.13;;
21601;SDS011;10963;50.934;4.668;2023-02-28T07:51:32;18.70;;;12.17;;
21601;SDS011;10963;50.934;4.668;2023-02-28T07:53:58;18.27;;;10.63;;
21601;SDS011;10963;50.934;4.668;2023-02-28T07:56:26;17.77;;;10.03;;
21601;SDS011;10963;50.934;4.668;2023-02-28T07:58:52;22.97;;;11.10;;
21601;SDS011;10963;50.934;4.668;2023-02-28T08:01:18;15.97;;;10.80;;
21601;SDS011;10963;50.934;4.668;2023-02-28T08:03:44;16.07;;;9.87;;
21601;SDS011;10963;50.934;4.668;2023-02-28T08:06:15;14.33;;;9.80;;
21601;SDS011;10963;50.934;4.668;2023-02-28T08:08:43;15.17;;;9.47;;
21601;SDS011;10963;50.934;4.668;2023-02-28T08:11:09;15.13;;;10.30;;
21601;SDS011;10963;50.934;4.668;2023-02-28T08:13:39;13.90;;;9.03;;
21601;SDS011;10963;50.934;4.668;2023-02-28T08:16:07;17.20;;;8.30;;
21601;SDS011;10963;50.934;4.668;2023-02-28T08:18:32;12.90;;;8.40;;
21601;SDS011;10963;50.934;4.668;2023-02-28T08:21:07;14.67;;;8.20;;
21601;SDS011;10963;50.934;4.668;2023-02-28T08:23:36;11.73;;;7.50;;
21601;SDS011;10963;50.934;4.668;2023-02-28T08:26:03;11.27;;;7.70;;
21601;SDS011;10963;50.934;4.668;2023-02-28T08:28:29;12.80;;;7.80;;
21601;SDS011;10963;50.934;4.668;2023-02-28T08:30:55;12.97;;;7.77;;
21601;SDS011;10963;50.934;4.668;2023-02-28T08:33:21;12.57;;;7.87;;
21601;SDS011;10963;50.934;4.668;2023-02-28T08:35:47;11.90;;;7.20;;
21601;SDS011;10963;50.934;4.668;2023-02-28T08:38:15;14.27;;;7.57;;
21601;SDS011;10963;50.934;4.668;2023-02-28T08:40:43;11.77;;;7.67;;
21601;SDS011;10963;50.934;4.668;2023-02-28T08:43:09;9.47;;;7.30;;
21601;SDS011;10963;50.934;4.668;2023-02-28T08:45:37;10.17;;;6.73;;
21601;SDS011;10963;50.934;4.668;2023-02-28T08:48:03;6.27;;;4.13;;
21601;SDS011;10963;50.934;4.668;2023-02-28T08:50:29;12.13;;;6.73;;
21601;SDS011;10963;50.934;4.668;2023-02-28T08:52:57;10.47;;;5.63;;
21601;SDS011;10963;50.934;4.668;2023-02-28T08:55:23;11.03;;;5.37;;
21601;SDS011;10963;50.934;4.668;2023-02-28T08:57:49;6.80;;;5.40;;
21601;SDS011;10963;50.934;4.668;2023-02-28T09:00:17;8.50;;;6.40;;
21601;SDS011;10963;50.934;4.668;2023-02-28T09:02:43;8.90;;;5.90;;
21601;SDS011;10963;50.934;4.668;2023-02-28T09:05:09;7.50;;;5.17;;
21601;SDS011;10963;50.934;4.668;2023-02-28T09:07:39;8.70;;;5.50;;
21601;SDS011;10963;50.934;4.668;2023-02-28T09:10:05;8.60;;;5.40;;
21601;SDS011;10963;50.934;4.668;2023-02-28T09:12:32;8.07;;;5.07;;
21601;SDS011;10963;50.934;4.668;2023-02-28T09:15:01;7.20;;;4.77;;
21601;SDS011;10963;50.934;4.668;2023-02-28T09:17:33;7.30;;;5.67;;
21601;SDS011;10963;50.934;4.668;2023-02-28T09:19:59;5.80;;;4.57;;
21601;SDS011;10963;50.934;4.668;2023-02-28T09:22:24;8.07;;;4.80;;
21601;SDS011;10963;50.934;4.668;2023-02-28T09:24:53;6.23;;;4.63;;
21601;SDS011;10963;50.934;4.668;2023-02-28T09:27:18;7.37;;;5.23;;
21601;SDS011;10963;50.934;4.668;2023-02-28T09:29:44;8.90;;;4.60;;
21601;SDS011;10963;50.934;4.668;2023-02-28T09:32:12;5.87;;;4.70;;
21601;SDS011;10963;50.934;4.668;2023-02-28T09:34:42;6.83;;;4.20;;
21601;SDS011;10963;50.934;4.668;2023-02-28T09:37:08;7.90;;;4.90;;
21601;SDS011;10963;50.934;4.668;2023-02-28T09:39:35;9.27;;;4.17;;
21601;SDS011;10963;50.934;4.668;2023-02-28T09:42:01;5.10;;;3.80;;
21601;SDS011;10963;50.934;4.668;2023-02-28T09:44:29;4.93;;;4.13;;
21601;SDS011;10963;50.934;4.668;2023-02-28T09:47:16;4.93;;;3.97;;
21601;SDS011;10963;50.934;4.668;2023-02-28T09:50:01;6.23;;;3.60;;
21601;SDS011;10963;50.934;4.668;2023-02-28T09:52:51;4.80;;;3.73;;
21601;SDS011;10963;50.934;4.668;2023-02-28T09:57:47;4.83;;;3.70;;
21601;SDS011;10963;50.934;4.668;2023-02-28T10:02:46;4.43;;;3.23;;
21601;SDS011;10963;50.934;4.668;2023-02-28T10:05:36;5.03;;;2.60;;
21601;SDS011;10963;50.934;4.668;2023-02-28T10:10:42;3.23;;;2.23;;
21601;SDS011;10963;50.934;4.668;2023-02-28T10:13:57;4.10;;;3.20;;
21601;SDS011;10963;50.934;4.668;2023-02-28T10:16:38;3.10;;;2.50;;
21601;SDS011;10963;50.934;4.668;2023-02-28T10:22:00;2.47;;;2.27;;
21601;SDS011;10963;50.934;4.668;2023-02-28T10:24:42;3.60;;;2.85;;
21601;SDS011;10963;50.934;4.668;2023-02-28T10:27:20;3.13;;;2.77;;
21601;SDS011;10963;50.934;4.668;2023-02-28T10:29:50;4.37;;;2.83;;
21601;SDS011;10963;50.934;4.668;2023-02-28T10:32:24;4.23;;;2.87;;
21601;SDS011;10963;50.934;4.668;2023-02-28T10:37:45;6.40;;;3.00;;
21601;SDS011;10963;50.934;4.668;2023-02-28T10:45:22;4.63;;;3.50;;
21601;SDS011;10963;50.934;4.668;2023-02-28T10:50:33;4.90;;;3.60;;
21601;SDS011;10963;50.934;4.668;2023-02-28T10:53:17;3.43;;;2.70;;
21601;SDS011;10963;50.934;4.668;2023-02-28T10:55:58;4.40;;;3.30;;
21601;SDS011;10963;50.934;4.668;2023-02-28T11:01:38;7.47;;;3.23;;
21601;SDS011;10963;50.934;4.668;2023-02-28T11:07:10;3.13;;;2.60;;
21601;SDS011;10963;50.934;4.668;2023-02-28T11:09:45;4.17;;;2.90;;
21601;SDS011;10963;50.934;4.668;2023-02-28T11:15:04;3.30;;;2.73;;
21601;SDS011;10963;50.934;4.668;2023-02-28T11:17:43;3.27;;;2.80;;
21601;SDS011;10963;50.934;4.668;2023-02-28T11:20:21;10.87;;;3.30;;
21601;SDS011;10963;50.934;4.668;2023-02-28T11:22:51;3.83;;;3.03;;
21601;SDS011;10963;50.934;4.668;2023-02-28T11:25:27;4.17;;;3.30;;
21601;SDS011;10963;50.934;4.668;2023-02-28T11:28:03;3.90;;;3.13;;
21601;SDS011;10963;50.934;4.668;2023-02-28T11:32:57;6.80;;;3.37;;
21601;SDS011;10963;50.934;4.668;2023-02-28T11:35:25;4.97;;;3.27;;
21601;SDS011;10963;50.934;4.668;2023-02-28T11:37:51;3.50;;;3.20;;
21601;SDS011;10963;50.934;4.668;2023-02-28T11:40:27;3.00;;;2.70;;
21601;SDS011;10963;50.934;4.668;2023-02-28T11:43:08;4.63;;;3.27;;
21601;SDS011;10963;50.934;4.668;2023-02-28T11:54:35;6.63;;;3.00;;
21601;SDS011;10963;50.934;4.668;2023-02-28T12:02:46;3.60;;;2.50;;
21601;SDS011;10963;50.934;4.668;2023-02-28T12:05:52;5.13;;;3.37;;
21601;SDS011;10963;50.934;4.668;2023-02-28T12:11:22;3.73;;;2.90;;
21601;SDS011;10963;50.934;4.668;2023-02-28T12:16:27;5.13;;;3.00;;
21601;SDS011;10963;50.934;4.668;2023-02-28T12:27:17;4.07;;;2.77;;
21601;SDS011;10963;50.934;4.668;2023-02-28T12:29:50;4.07;;;2.87;;
21601;SDS011;10963;50.934;4.668;2023-02-28T12:35:01;5.70;;;3.30;;
21601;SDS011;10963;50.934;4.668;2023-02-28T12:37:31;3.93;;;2.80;;
21601;SDS011;10963;50.934;4.668;2023-02-28T12:40:12;3.77;;;3.07;;
21601;SDS011;10963;50.934;4.668;2023-02-28T12:42:43;5.63;;;3.40;;
21601;SDS011;10963;50.934;4.668;2023-02-28T12:45:15;3.60;;;3.07;;
21601;SDS011;10963;50.934;4.668;2023-02-28T12:47:56;3.17;;;2.87;;
21601;SDS011;10963;50.934;4.668;2023-02-28T12:50:25;4.37;;;3.07;;
21601;SDS011;10963;50.934;4.668;2023-02-28T12:53:28;4.53;;;2.97;;
21601;SDS011;10963;50.934;4.668;2023-02-28T12:58:13;2.97;;;2.63;;
21601;SDS011;10963;50.934;4.668;2023-02-28T13:09:15;6.43;;;3.60;;
21601;SDS011;10963;50.934;4.668;2023-02-28T13:11:46;9.07;;;3.50;;
21601;SDS011;10963;50.934;4.668;2023-02-28T13:17:21;3.53;;;3.10;;
21601;SDS011;10963;50.934;4.668;2023-02-28T13:24:53;3.57;;;3.00;;
21601;SDS011;10963;50.934;4.668;2023-02-28T13:27:22;4.00;;;2.87;;
21601;SDS011;10963;50.934;4.668;2023-02-28T13:29:49;6.00;;;3.67;;
21601;SDS011;10963;50.934;4.668;2023-02-28T14:06:15;4.20;;;3.57;;
21601;SDS011;10963;50.934;4.668;2023-02-28T14:08:55;4.33;;;3.60;;
21601;SDS011;10963;50.934;4.668;2023-02-28T14:11:29;7.13;;;3.60;;
21601;SDS011;10963;50.934;4.668;2023-02-28T14:14:00;3.77;;;3.47;;
21601;SDS011;10963;50.934;4.668;2023-02-28T14:16:28;7.23;;;3.57;;
21601;SDS011;10963;50.934;4.668;2023-02-28T14:19:27;9.33;;;4.37;;
21601;SDS011;10963;50.934;4.668;2023-02-28T14:25:08;6.10;;;3.70;;
21601;SDS011;10963;50.934;4.668;2023-02-28T14:30:20;6.33;;;4.17;;
21601;SDS011;10963;50.934;4.668;2023-02-28T14:36:06;5.03;;;3.97;;
21601;SDS011;10963;50.934;4.668;2023-02-28T14:38:51;4.90;;;3.27;;
21601;SDS011;10963;50.934;4.668;2023-02-28T14:41:34;5.33;;;4.07;;
21601;SDS011;10963;50.934;4.668;2023-02-28T14:44:12;7.63;;;4.00;;
21601;SDS011;10963;50.934;4.668;2023-02-28T14:46:55;6.80;;;3.70;;
21601;SDS011;10963;50.934;4.668;2023-02-28T14:49:51;3.50;;;3.20;;
21601;SDS011;10963;50.934;4.668;2023-02-28T14:52:20;5.60;;;3.97;;
21601;SDS011;10963;50.934;4.668;2023-02-28T14:54:53;5.23;;;4.40;;
21601;SDS011;10963;50.934;4.668;2023-02-28T14:57:25;5.60;;;4.20;;
21601;SDS011;10963;50.934;4.668;2023-02-28T15:02:38;16.43;;;8.07;;
21601;SDS011;10963;50.934;4.668;2023-02-28T15:07:43;5.53;;;3.70;;
21601;SDS011;10963;50.934;4.668;2023-02-28T15:12:55;3.63;;;3.20;;
21601;SDS011;10963;50.934;4.668;2023-02-28T15:15:22;6.60;;;3.80;;
21601;SDS011;10963;50.934;4.668;2023-02-28T15:17:56;7.57;;;4.27;;
21601;SDS011;10963;50.934;4.668;2023-02-28T15:20:26;4.20;;;3.50;;
21601;SDS011;10963;50.934;4.668;2023-02-28T15:22:54;7.70;;;4.40;;
21601;SDS011;10963;50.934;4.668;2023-02-28T15:25:22;5.30;;;3.80;;
21601;SDS011;10963;50.934;4.668;2023-02-28T15:27:49;7.27;;;4.30;;
21601;SDS011;10963;50.934;4.668;2023-02-28T15:30:26;5.67;;;3.83;;
21601;SDS011;10963;50.934;4.668;2023-02-28T15:35:38;6.57;;;4.00;;
21601;SDS011;10963;50.934;4.668;2023-02-28T15:38:15;8.40;;;5.07;;
21601;SDS011;10963;50.934;4.668;2023-02-28T15:40:56;6.33;;;4.10;;
21601;SDS011;10963;50.934;4.668;2023-02-28T15:43:24;9.43;;;4.07;;
21601;SDS011;10963;50.934;4.668;2023-02-28T15:48:56;4.93;;;3.90;;
21601;SDS011;10963;50.934;4.668;2023-02-28T15:54:00;4.20;;;3.50;;
21601;SDS011;10963;50.934;4.668;2023-02-28T15:56:30;5.73;;;3.63;;
21601;SDS011;10963;50.934;4.668;2023-02-28T15:58:59;6.27;;;3.80;;
21601;SDS011;10963;50.934;4.668;2023-02-28T16:01:31;5.87;;;3.80;;
21601;SDS011;10963;50.934;4.668;2023-02-28T16:04:03;7.07;;;4.60;;
21601;SDS011;10963;50.934;4.668;2023-02-28T16:08:58;3.97;;;3.40;;
21601;SDS011;10963;50.934;4.668;2023-02-28T16:11:24;8.37;;;4.10;;
21601;SDS011;10963;50.934;4.668;2023-02-28T16:13:50;6.23;;;3.90;;
21601;SDS011;10963;50.934;4.668;2023-02-28T16:16:17;8.90;;;3.90;;
21601;SDS011;10963;50.934;4.668;2023-02-28T16:18:45;4.33;;;3.83;;
21601;SDS011;10963;50.934;4.668;2023-02-28T16:21:11;6.77;;;3.47;;
21601;SDS011;10963;50.934;4.668;2023-02-28T16:23:37;7.00;;;3.50;;
21601;SDS011;10963;50.934;4.668;2023-02-28T16:26:03;6.63;;;3.10;;
21601;SDS011;10963;50.934;4.668;2023-02-28T16:28:31;4.73;;;3.80;;
21601;SDS011;10963;50.934;4.668;2023-02-28T16:31:03;4.77;;;3.63;;
21601;SDS011;10963;50.934;4.668;2023-02-28T16:33:33;10.83;;;3.67;;
21601;SDS011;10963;50.934;4.668;2023-02-28T16:36:03;6.53;;;3.40;;
21601;SDS011;10963;50.934;4.668;2023-02-28T16:38:30;6.50;;;4.10;;
21601;SDS011;10963;50.934;4.668;2023-02-28T16:40:57;5.57;;;3.57;;
21601;SDS011;10963;50.934;4.668;2023-02-28T16:43:27;7.77;;;4.07;;
21601;SDS011;10963;50.934;4.668;2023-02-28T16:45:56;5.43;;;3.33;;
21601;SDS011;10963;50.934;4.668;2023-02-28T16:48:25;4.00;;;3.57;;
21601;SDS011;10963;50.934;4.668;2023-02-28T16:50:54;5.03;;;3.53;;
21601;SDS011;10963;50.934;4.668;2023-02-28T16:53:22;4.30;;;3.47;;
21601;SDS011;10963;50.934;4.668;2023-02-28T16:55:48;5.70;;;3.83;;
21601;SDS011;10963;50.934;4.668;2023-02-28T16:58:16;4.37;;;3.50;;
21601;SDS011;10963;50.934;4.668;2023-02-28T17:00:42;5.50;;;3.53;;
21601;SDS011;10963;50.934;4.668;2023-02-28T17:03:22;7.83;;;4.23;;
21601;SDS011;10963;50.934;4.668;2023-02-28T17:05:49;6.13;;;3.90;;
21601;SDS011;10963;50.934;4.668;2023-02-28T17:08:18;8.63;;;4.13;;
21601;SDS011;10963;50.934;4.668;2023-02-28T17:10:46;4.50;;;3.40;;
21601;SDS011;10963;50.934;4.668;2023-02-28T17:13:16;6.30;;;4.00;;
21601;SDS011;10963;50.934;4.668;2023-02-28T17:15:42;5.73;;;4.00;;
21601;SDS011;10963;50.934;4.668;2023-02-28T17:18:14;8.23;;;5.13;;
21601;SDS011;10963;50.934;4.668;2023-02-28T17:20:49;8.23;;;4.60;;
21601;SDS011;10963;50.934;4.668;2023-02-28T17:23:15;14.07;;;5.73;;
21601;SDS011;10963;50.934;4.668;2023-02-28T17:25:43;30.70;;;12.20;;
21601;SDS011;10963;50.934;4.668;2023-02-28T17:28:18;19.60;;;8.63;;
21601;SDS011;10963;50.934;4.668;2023-02-28T17:30:47;10.43;;;5.33;;
21601;SDS011;10963;50.934;4.668;2023-02-28T17:33:15;8.40;;;4.20;;
21601;SDS011;10963;50.934;4.668;2023-02-28T17:35:41;7.23;;;4.20;;
21601;SDS011;10963;50.934;4.668;2023-02-28T17:38:16;5.03;;;3.90;;
21601;SDS011;10963;50.934;4.668;2023-02-28T17:40:47;9.20;;;4.57;;
21601;SDS011;10963;50.934;4.668;2023-02-28T17:43:12;6.63;;;4.37;;
21601;SDS011;10963;50.934;4.668;2023-02-28T17:45:43;7.67;;;3.90;;
21601;SDS011;10963;50.934;4.668;2023-02-28T17:48:09;6.97;;;4.63;;
21601;SDS011;10963;50.934;4.668;2023-02-28T17:50:38;10.50;;;4.87;;
21601;SDS011;10963;50.934;4.668;2023-02-28T17:53:04;7.27;;;4.60;;
21601;SDS011;10963;50.934;4.668;2023-02-28T17:55:30;7.33;;;4.63;;
21601;SDS011;10963;50.934;4.668;2023-02-28T17:57:56;9.03;;;4.47;;
21601;SDS011;10963;50.934;4.668;2023-02-28T18:00:21;5.77;;;4.23;;